This is the latest recevied weather packets stored in our database for station/object OK1VCF-5. If no packets are shown the sender has not sent any weather packets the latest 10 day(s).
| Time | Temp. | Humidity | Pressure | Rain* | Wind** | Luminosity | Snow |
|---|---|---|---|---|---|---|---|
| 1777536505 | 12.22° C | 31% | 1036.2 hPa | - | - | - | - |
| 1777534702 | 11.11° C | 34% | 1036.6 hPa | - | - | - | - |
| 1777533856 | 10° C | 43% | 1036.5 hPa | - | - | - | - |
| 1777533802 | 10° C | 43% | 1036.5 hPa | - | - | - | - |
| 1777533802 | 10° C | - | - | - | - | - | - |
| 1777532001 | 7.78° C | 46% | 1036.8 hPa | - | - | - | - |
| 1777531101 | 6.67° C | 48% | 1036.8 hPa | - | - | - | - |
| 1777530200 | 5.56° C | - | - | - | - | - | - |
| 1777530199 | 5.56° C | 52% | 1037 hPa | - | - | - | - |
| 1777528398 | 1.11° C | 64% | 1037.2 hPa | - | - | - | - |
| 1777527498 | 0° C | - | - | - | - | - | - |
| 1777527497 | 0° C | 66% | 1037.2 hPa | - | - | - | - |
| 1777526596 | -0.56° C | 71% | 1037.2 hPa | - | - | - | - |
| 1777525695 | -1.11° C | 74% | 1037.3 hPa | - | - | - | - |
| 1777524795 | -2.22° C | 76% | 1037.2 hPa | - | - | - | - |
| 1777523897 | -2.78° C | 78% | 1037.2 hPa | - | - | - | - |
| 1777522995 | -3.33° C | 80% | 1037.1 hPa | - | - | - | - |
| 1777522092 | -3.33° C | 80% | 1037 hPa | - | - | - | - |
| 1777521192 | -3.33° C | 78% | 1036.7 hPa | - | - | - | - |
| 1777520292 | -3.33° C | 79% | 1036.6 hPa | - | - | - | - |
| 1777520290 | -3.33° C | 79% | 1036.6 hPa | - | - | - | - |
| 1777519393 | -3.33° C | 78% | 1036.4 hPa | - | - | - | - |
| 1777518490 | -3.33° C | 78% | 1036.4 hPa | - | - | - | - |
| 1777517587 | -3.33° C | 78% | 1036.4 hPa | - | - | - | - |
| 1777516686 | -3.33° C | 78% | 1036.3 hPa | - | - | - | - |
* Rain since midnight (hover to see other rain measurements)
** Current wind speed in m/s (hover to see current wind gust speed)